Decoded Metar for UUBC ( in ) (IATA:) | Meteo·Mobile Aviation Weather
aviador You're here:

UUBC Decoded Metar

in
Report Time2018-10-17 04:30:00
UTC Time2018-10-17 04:52:48
Flight Rules lifr LIFR
WindCalm
Visibility0150 m
Phenomena:Fog
Clouds:N/A
Ceiling100 ft
Temp01°C
Dew Point01°C (100% RH)
AAT-0.8°C
QNH1026 hPa
Raw Report
METAR UUBC 170430Z 00000MPS 0200 0150NE R31/0200 FG VV001 01/01 Q1026
R31/////// NOSIG RMK QBB030 QFE752/1003=

Extra information for UUBC:More info

Social comments